Time;durP1;ratioP1;P1;durP2;ratioP2;P2;SDS_P1;SDS_P2;PMS_P1;PMS_P2;Temp;Humidity;BMP_temperature;BMP_pressure;BME280_temperature;BME280_humidity;BME280_pressure;Samples;Min_cycle;Max_cycle;Signal;HPM_P1;HPM_P2
2021/12/31 00:00:27;;;;;;;11.68;4.07;;;14.00;87.70;;;;;;5011634;28;20038;-77
2021/12/31 00:02:53;;;;;;;10.23;3.28;;;14.00;87.70;;;;;;5010632;28;20038;-75
2021/12/31 00:05:19;;;;;;;9.63;3.60;;;14.10;87.80;;;;;;5013819;28;20037;-76
2021/12/31 00:07:47;;;;;;;10.25;3.47;;;14.00;87.80;;;;;;5012860;28;20038;-75
2021/12/31 00:10:13;;;;;;;10.90;3.67;;;14.00;87.80;;;;;;5014156;28;20041;-75
2021/12/31 00:12:41;;;;;;;10.80;3.50;;;14.00;88.00;;;;;;5005915;28;20041;-77
2021/12/31 00:15:07;;;;;;;10.15;3.83;;;14.00;88.00;;;;;;5011980;28;20397;-76
2021/12/31 00:17:33;;;;;;;11.57;3.63;;;14.00;88.00;;;;;;5013655;28;20092;-76
2021/12/31 00:20:09;;;;;;;12.20;3.70;;;14.00;88.00;;;;;;5009424;28;20034;-75
2021/12/31 00:25:07;;;;;;;10.48;4.00;;;13.90;88.00;;;;;;5007168;28;20029;-75
2021/12/31 00:27:33;;;;;;;11.73;3.88;;;13.90;87.90;;;;;;5019501;28;20476;-76
2021/12/31 00:29:58;;;;;;;10.05;4.13;;;14.00;88.10;;;;;;5014920;28;20117;-75
2021/12/31 00:32:24;;;;;;;12.38;3.70;;;14.00;88.00;;;;;;5006742;28;20058;-74
2021/12/31 00:34:49;;;;;;;15.30;3.85;;;14.00;87.90;;;;;;5019584;28;20064;-76
2021/12/31 00:37:26;;;;;;;12.25;3.60;;;14.00;87.80;;;;;;5015676;28;20041;-76
2021/12/31 00:39:51;;;;;;;10.40;3.92;;;14.00;87.70;;;;;;5016728;28;20120;-75
2021/12/31 00:42:17;;;;;;;8.93;3.55;;;14.00;87.70;;;;;;5009537;28;20130;-76
2021/12/31 00:44:43;;;;;;;12.00;3.67;;;14.00;87.80;;;;;;5013804;28;20180;-76
2021/12/31 00:47:08;;;;;;;12.77;3.97;;;14.00;87.70;;;;;;5011119;28;20435;-74
2021/12/31 00:49:34;;;;;;;9.57;3.53;;;14.10;87.70;;;;;;5010228;28;20057;-75
2021/12/31 00:51:59;;;;;;;12.50;3.88;;;14.00;87.70;;;;;;5010259;28;20424;-75
2021/12/31 00:54:25;;;;;;;11.13;3.70;;;14.00;87.60;;;;;;5015500;28;20124;-77
2021/12/31 00:56:51;;;;;;;8.73;3.65;;;14.00;87.60;;;;;;5013487;28;20037;-76
2021/12/31 00:59:16;;;;;;;8.27;3.50;;;14.00;87.50;;;;;;5010776;28;20041;-74
2021/12/31 01:01:42;;;;;;;11.65;3.90;;;14.00;87.60;;;;;;5007611;28;20041;-77
2021/12/31 01:04:08;;;;;;;9.90;3.65;;;14.00;87.50;;;;;;5008969;28;20041;-76
2021/12/31 01:06:33;;;;;;;13.48;4.18;;;14.00;87.70;;;;;;5011294;28;20440;-75
2021/12/31 01:08:59;;;;;;;11.68;3.45;;;13.90;87.70;;;;;;5010391;28;20116;-75
2021/12/31 01:11:25;;;;;;;12.80;4.43;;;13.90;87.80;;;;;;5008077;28;20125;-82
2021/12/31 01:13:56;;;;;;;12.90;4.00;;;13.80;87.90;;;;;;5015430;28;20033;-78
2021/12/31 01:16:23;;;;;;;13.73;4.00;;;13.80;88.10;;;;;;5010000;28;20050;-75
2021/12/31 01:21:21;;;;;;;10.00;3.83;;;13.70;88.30;;;;;;5008979;28;20037;-75
2021/12/31 01:23:51;;;;;;;12.10;4.38;;;13.70;88.30;;;;;;5011584;28;20474;-75
2021/12/31 01:26:18;;;;;;;11.65;4.25;;;13.60;88.40;;;;;;5008337;28;20041;-77
2021/12/31 01:28:44;;;;;;;11.43;4.00;;;13.60;88.50;;;;;;5023148;28;20042;-77
2021/12/31 01:31:10;;;;;;;8.00;3.60;;;13.60;88.50;;;;;;5009910;28;20111;-76
2021/12/31 01:33:35;;;;;;;11.13;4.18;;;13.60;88.50;;;;;;5018483;28;20119;-75
2021/12/31 01:36:01;;;;;;;10.70;3.92;;;13.60;88.40;;;;;;5016219;28;20112;-75
2021/12/31 01:38:28;;;;;;;11.82;3.72;;;13.60;88.50;;;;;;5000226;28;20041;-76
2021/12/31 01:40:54;;;;;;;9.98;4.03;;;13.50;88.50;;;;;;5008718;28;20068;-76
2021/12/31 01:43:20;;;;;;;9.15;4.15;;;13.50;88.80;;;;;;5015744;28;20401;-75
2021/12/31 01:45:54;;;;;;;9.70;4.13;;;13.50;88.80;;;;;;5017061;28;20663;-75
2021/12/31 01:48:27;;;;;;;10.63;4.22;;;13.40;88.70;;;;;;5000954;28;20448;-75
2021/12/31 01:50:53;;;;;;;12.45;4.10;;;13.50;88.70;;;;;;5011261;28;20060;-76
2021/12/31 01:53:22;;;;;;;14.48;4.53;;;13.50;89.00;;;;;;5009074;28;20037;-78
2021/12/31 01:55:50;;;;;;;11.02;4.55;;;13.40;89.10;;;;;;5001282;28;20498;-76
2021/12/31 01:58:20;;;;;;;13.75;4.78;;;13.50;89.10;;;;;;5007923;28;20393;-75
2021/12/31 02:00:47;;;;;;;8.98;4.28;;;13.50;89.00;;;;;;5007858;28;20038;-76
2021/12/31 02:03:13;;;;;;;11.77;4.85;;;13.40;89.10;;;;;;5005808;28;20034;-75
2021/12/31 02:05:39;;;;;;;13.75;4.35;;;13.50;89.00;;;;;;5006641;28;20064;-76
2021/12/31 02:08:05;;;;;;;11.90;4.65;;;13.50;89.00;;;;;;5011966;28;20050;-75
2021/12/31 02:10:31;;;;;;;13.20;5.00;;;13.50;89.00;;;;;;5009685;28;20116;-76
2021/12/31 02:12:57;;;;;;;12.85;4.57;;;13.50;89.00;;;;;;5013902;28;20037;-75
2021/12/31 02:15:24;;;;;;;16.92;5.10;;;13.50;89.00;;;;;;5007204;28;20431;-76
2021/12/31 02:17:50;;;;;;;12.18;4.60;;;13.50;88.90;;;;;;5007947;28;20469;-77
2021/12/31 02:20:18;;;;;;;15.18;4.78;;;13.50;88.80;;;;;;5017847;28;20041;-76
2021/12/31 02:22:52;;;;;;;12.70;4.95;;;13.50;88.80;;;;;;5004886;28;20046;-74
2021/12/31 02:25:20;;;;;;;13.45;4.68;;;13.40;88.80;;;;;;5009420;28;20026;-79
2021/12/31 02:27:45;;;;;;;10.23;3.70;;;13.40;88.70;;;;;;5005832;28;20046;-77
2021/12/31 02:30:11;;;;;;;9.65;4.03;;;13.40;88.80;;;;;;5017997;28;20045;-77
2021/12/31 02:32:38;;;;;;;13.07;4.57;;;13.30;88.80;;;;;;5001549;28;20030;-76
2021/12/31 02:35:06;;;;;;;13.18;5.40;;;13.20;88.80;;;;;;5006651;28;20033;-75
2021/12/31 02:37:32;;;;;;;11.70;4.43;;;13.20;89.00;;;;;;5008102;28;20481;-77
2021/12/31 02:40:00;;;;;;;12.40;4.72;;;13.10;89.10;;;;;;5005761;28;20049;-76
2021/12/31 02:42:26;;;;;;;9.35;4.45;;;13.10;89.20;;;;;;5001129;28;20052;-80
2021/12/31 02:44:54;;;;;;;10.13;4.40;;;13.00;89.20;;;;;;5015841;28;20041;-75
2021/12/31 02:47:19;;;;;;;15.75;4.55;;;12.90;89.20;;;;;;5002371;28;20062;-76
2021/12/31 02:49:47;;;;;;;11.35;4.43;;;12.90;89.30;;;;;;5006668;28;20104;-76
2021/12/31 02:52:14;;;;;;;10.60;4.70;;;12.90;89.30;;;;;;5008429;28;20128;-75
2021/12/31 02:54:47;;;;;;;14.35;5.45;;;12.80;89.40;;;;;;5004197;28;20397;-76
2021/12/31 02:57:14;;;;;;;10.50;4.22;;;12.80;89.50;;;;;;5016909;28;20040;-75
2021/12/31 02:59:40;;;;;;;9.55;4.25;;;12.80;89.50;;;;;;5022043;28;20088;-75
2021/12/31 03:02:06;;;;;;;13.07;5.75;;;12.70;89.60;;;;;;5007991;28;20401;-75
2021/12/31 03:04:38;;;;;;;11.43;4.70;;;12.70;89.60;;;;;;5010518;28;20540;-76
2021/12/31 03:07:05;;;;;;;14.77;5.43;;;12.60;89.70;;;;;;5011984;28;20435;-76
2021/12/31 03:09:33;;;;;;;12.85;4.20;;;12.60;89.90;;;;;;5008310;28;20539;-77
2021/12/31 03:11:59;;;;;;;11.60;5.53;;;12.60;89.90;;;;;;5010730;28;20038;-77
2021/12/31 03:14:27;;;;;;;12.25;5.25;;;12.60;89.90;;;;;;5010392;28;20137;-74
2021/12/31 03:16:52;;;;;;;13.27;5.05;;;12.50;90.00;;;;;;5022414;28;20485;-75
2021/12/31 03:19:20;;;;;;;13.95;5.25;;;12.60;89.80;;;;;;5012668;28;20048;-75
2021/12/31 03:21:46;;;;;;;11.45;4.90;;;12.50;89.90;;;;;;5011519;28;20120;-75
2021/12/31 03:24:12;;;;;;;10.75;5.38;;;12.50;90.00;;;;;;5012904;28;20092;-75
2021/12/31 03:26:37;;;;;;;13.38;4.50;;;12.50;90.00;;;;;;5012989;28;20473;-74
2021/12/31 03:29:03;;;;;;;12.57;4.82;;;12.50;90.00;;;;;;5026338;28;20124;-81
2021/12/31 03:31:29;;;;;;;13.60;5.10;;;12.40;90.00;;;;;;5009851;28;20113;-75
2021/12/31 03:33:54;;;;;;;12.98;5.07;;;12.40;90.10;;;;;;5012005;28;20038;-75
2021/12/31 03:36:20;;;;;;;12.20;5.45;;;12.40;90.10;;;;;;5005365;28;20034;-74
2021/12/31 03:38:45;;;;;;;10.85;4.93;;;12.30;90.10;;;;;;5013875;28;20046;-76
2021/12/31 03:41:11;;;;;;;14.00;5.03;;;12.30;90.20;;;;;;5006249;28;20042;-81
2021/12/31 03:43:37;;;;;;;11.00;5.00;;;12.30;90.20;;;;;;5003083;28;20123;-76
2021/12/31 03:46:03;;;;;;;11.35;5.00;;;12.30;90.30;;;;;;5003547;28;20038;-76
2021/12/31 03:48:29;;;;;;;16.13;5.15;;;12.20;90.30;;;;;;5010329;28;20121;-75
2021/12/31 03:50:54;;;;;;;11.02;5.40;;;12.20;90.40;;;;;;5006911;28;20049;-75
2021/12/31 03:53:20;;;;;;;13.27;5.45;;;12.10;90.50;;;;;;5010332;28;20033;-75
2021/12/31 03:55:47;;;;;;;11.13;5.22;;;12.10;90.50;;;;;;5014569;28;20425;-75
2021/12/31 03:58:13;;;;;;;10.57;5.13;;;12.10;90.50;;;;;;5014094;28;20572;-75
2021/12/31 04:00:39;;;;;;;12.52;5.43;;;12.10;90.50;;;;;;5007773;28;20085;-75
2021/12/31 04:03:11;;;;;;;14.20;5.50;;;12.10;90.60;;;;;;5007840;28;20125;-77
2021/12/31 04:05:41;;;;;;;11.23;4.95;;;12.10;90.70;;;;;;5017139;28;20042;-80
2021/12/31 04:08:07;;;;;;;11.02;4.93;;;12.10;90.60;;;;;;5015509;28;20539;-75
2021/12/31 04:10:33;;;;;;;12.20;4.88;;;12.10;90.50;;;;;;5011628;28;20040;-74
2021/12/31 04:12:59;;;;;;;10.77;4.93;;;12.10;90.50;;;;;;5017233;28;20046;-76
2021/12/31 04:15:25;;;;;;;10.15;4.93;;;12.00;90.60;;;;;;5025491;28;20038;-74
2021/12/31 04:17:51;;;;;;;11.80;4.90;;;12.00;90.50;;;;;;5014546;28;20536;-74
2021/12/31 04:21:01;;;;;;;11.00;5.03;;;12.00;90.70;;;;;;5014187;28;20157;-75
2021/12/31 04:23:24;;;;;;;10.88;4.47;;;11.90;90.60;;;;;;5002731;28;20105;-77
2021/12/31 04:25:50;;;;;;;12.38;5.50;;;11.90;90.80;;;;;;5007622;28;20053;-75
2021/12/31 04:28:16;;;;;;;11.43;5.57;;;11.90;90.70;;;;;;5021095;28;20052;-77
2021/12/31 04:30:41;;;;;;;12.27;5.47;;;11.90;90.80;;;;;;5009281;28;20034;-75
2021/12/31 04:33:07;;;;;;;13.13;5.30;;;11.90;90.80;;;;;;5011190;28;20488;-76
2021/12/31 04:35:33;;;;;;;11.07;5.13;;;11.90;90.80;;;;;;5013392;28;20038;-80
2021/12/31 04:37:58;;;;;;;11.50;4.97;;;11.80;90.70;;;;;;5019749;28;20504;-76
2021/12/31 04:40:24;;;;;;;10.05;5.32;;;11.80;90.80;;;;;;5016469;28;20076;-76
2021/12/31 04:42:50;;;;;;;10.95;5.35;;;11.70;90.80;;;;;;5016710;28;20038;-75
2021/12/31 04:45:16;;;;;;;12.10;5.50;;;11.70;90.90;;;;;;5014807;28;20113;-77
2021/12/31 04:47:42;;;;;;;12.27;6.07;;;11.70;91.00;;;;;;5017437;28;20132;-76
2021/12/31 04:50:08;;;;;;;10.85;5.35;;;11.70;91.10;;;;;;5016664;28;20070;-75
2021/12/31 04:52:34;;;;;;;11.10;5.53;;;11.60;91.10;;;;;;5006713;28;20041;-75
2021/12/31 04:55:00;;;;;;;12.20;5.80;;;11.60;91.10;;;;;;5010043;28;20042;-75
2021/12/31 04:57:26;;;;;;;11.40;5.43;;;11.60;91.10;;;;;;5009447;28;21309;-75
2021/12/31 04:59:53;;;;;;;12.43;6.07;;;11.60;91.10;;;;;;5015986;28;20034;-76
2021/12/31 05:02:19;;;;;;;10.10;5.10;;;11.60;90.90;;;;;;5013180;28;20057;-74
2021/12/31 05:04:45;;;;;;;9.75;5.32;;;11.60;90.90;;;;;;5010655;28;20058;-75
2021/12/31 05:07:11;;;;;;;9.90;4.40;;;11.60;91.00;;;;;;5009693;28;20204;-77
2021/12/31 05:09:37;;;;;;;12.93;5.40;;;11.60;91.00;;;;;;5010045;28;20120;-75
2021/12/31 05:12:04;;;;;;;10.10;5.03;;;11.50;91.00;;;;;;5014242;28;20089;-75
2021/12/31 05:14:31;;;;;;;12.35;5.60;;;11.60;91.00;;;;;;5016158;28;20189;-75
2021/12/31 05:16:58;;;;;;;10.73;4.93;;;11.60;91.00;;;;;;5015503;28;20045;-76
2021/12/31 05:19:26;;;;;;;12.68;5.22;;;11.50;91.00;;;;;;5017080;28;20161;-75
2021/12/31 05:21:52;;;;;;;13.63;5.38;;;11.50;91.10;;;;;;5011273;28;20042;-75
2021/12/31 05:24:18;;;;;;;11.15;6.18;;;11.50;91.10;;;;;;5010495;28;20041;-74
2021/12/31 05:26:44;;;;;;;13.48;5.50;;;11.40;91.10;;;;;;5022703;28;20030;-75
2021/12/31 05:29:09;;;;;;;14.95;6.28;;;11.50;91.10;;;;;;5008025;28;20072;-77
2021/12/31 05:31:35;;;;;;;10.98;5.65;;;11.50;91.00;;;;;;5015787;28;20068;-76
2021/12/31 05:34:01;;;;;;;11.43;5.43;;;11.40;91.10;;;;;;5013244;28;20034;-76
2021/12/31 05:36:27;;;;;;;14.55;6.70;;;11.40;91.20;;;;;;5022224;28;20059;-75
2021/12/31 05:38:52;;;;;;;13.27;6.82;;;11.30;91.30;;;;;;5017517;28;20044;-73
2021/12/31 05:41:18;;;;;;;14.00;7.00;;;11.30;91.40;;;;;;5007925;28;20065;-74
2021/12/31 05:43:44;;;;;;;14.35;6.55;;;11.30;91.40;;;;;;5010000;28;20541;-77
2021/12/31 05:46:09;;;;;;;12.20;6.80;;;11.30;91.40;;;;;;5013512;28;20041;-75
2021/12/31 05:48:35;;;;;;;13.60;7.00;;;11.20;91.70;;;;;;5018522;28;20042;-75
2021/12/31 05:51:01;;;;;;;13.55;7.45;;;11.10;91.70;;;;;;5011177;28;20058;-77
2021/12/31 05:53:27;;;;;;;13.43;7.43;;;11.10;91.80;;;;;;5009586;28;20034;-77
2021/12/31 05:55:52;;;;;;;14.55;6.57;;;11.10;91.80;;;;;;5008983;28;20570;-75
2021/12/31 05:58:18;;;;;;;11.50;6.30;;;11.10;91.90;;;;;;5015217;28;20217;-75
2021/12/31 06:00:44;;;;;;;14.63;7.00;;;11.10;92.00;;;;;;5003794;28;20128;-75
2021/12/31 06:03:09;;;;;;;13.10;6.70;;;11.10;91.80;;;;;;5008126;28;20049;-76
2021/12/31 06:05:36;;;;;;;14.32;6.60;;;11.10;91.80;;;;;;5007681;28;20117;-76
2021/12/31 06:08:02;;;;;;;12.23;5.82;;;11.10;91.80;;;;;;5011276;28;20077;-77
2021/12/31 06:10:27;;;;;;;11.98;5.60;;;11.10;91.80;;;;;;5010466;28;20509;-75
2021/12/31 06:12:57;;;;;;;12.05;5.45;;;11.10;91.70;;;;;;5008275;28;20436;-76
2021/12/31 06:15:23;;;;;;;12.10;4.93;;;11.10;91.60;;;;;;5007355;28;20038;-75
2021/12/31 06:17:50;;;;;;;10.45;5.38;;;11.00;91.60;;;;;;5008472;28;20038;-75
2021/12/31 06:20:15;;;;;;;10.20;5.45;;;11.10;91.40;;;;;;5020929;28;20069;-76
2021/12/31 06:22:41;;;;;;;11.00;5.18;;;11.10;91.40;;;;;;5006999;28;20080;-79
2021/12/31 06:25:07;;;;;;;10.73;5.22;;;11.10;91.20;;;;;;5021378;28;20032;-75
2021/12/31 06:27:33;;;;;;;11.35;5.30;;;11.10;91.10;;;;;;5009607;28;20025;-76
2021/12/31 06:29:58;;;;;;;10.77;5.85;;;11.10;91.00;;;;;;5022001;28;20076;-75
2021/12/31 06:32:24;;;;;;;9.73;4.97;;;11.20;90.90;;;;;;5004685;28;20040;-75
2021/12/31 06:34:49;;;;;;;9.30;5.63;;;11.20;90.70;;;;;;5009060;28;20489;-76
2021/12/31 06:37:15;;;;;;;12.40;5.93;;;11.20;90.70;;;;;;5021043;28;20065;-79
2021/12/31 06:39:42;;;;;;;12.80;5.82;;;11.20;90.50;;;;;;5009245;28;20108;-75
2021/12/31 06:42:09;;;;;;;10.35;5.50;;;11.20;90.50;;;;;;5008438;28;20045;-76
2021/12/31 06:44:36;;;;;;;10.25;5.80;;;11.30;90.50;;;;;;5015516;28;20069;-75
2021/12/31 06:47:03;;;;;;;12.35;6.63;;;11.20;90.40;;;;;;5011910;28;20041;-77
2021/12/31 06:49:29;;;;;;;13.23;6.40;;;11.30;90.30;;;;;;5016178;28;20037;-75
2021/12/31 06:51:55;;;;;;;13.10;6.82;;;11.30;90.20;;;;;;5008137;28;20053;-76
2021/12/31 06:54:20;;;;;;;12.25;6.00;;;11.40;90.10;;;;;;5008359;28;20030;-77
2021/12/31 06:56:46;;;;;;;9.95;5.85;;;11.30;90.00;;;;;;4997427;28;20039;-80
2021/12/31 06:59:11;;;;;;;10.70;6.20;;;11.30;90.00;;;;;;5007472;28;20049;-77
2021/12/31 07:01:37;;;;;;;13.38;6.28;;;11.30;89.90;;;;;;5012057;28;20057;-77
2021/12/31 07:04:03;;;;;;;11.07;5.80;;;11.30;90.00;;;;;;5007472;28;20389;-77
2021/12/31 07:06:29;;;;;;;10.00;6.25;;;11.30;90.10;;;;;;5006877;28;20508;-76
2021/12/31 07:08:54;;;;;;;10.45;6.65;;;11.30;90.00;;;;;;5007293;28;20045;-77
2021/12/31 07:11:22;;;;;;;12.30;6.07;;;11.20;90.10;;;;;;5007232;28;20176;-76
2021/12/31 07:13:48;;;;;;;11.95;6.78;;;11.20;90.10;;;;;;5008832;28;20037;-75
2021/12/31 07:16:14;;;;;;;11.77;7.40;;;11.20;90.10;;;;;;5009787;28;20034;-76
2021/12/31 07:18:40;;;;;;;12.52;6.95;;;11.30;90.00;;;;;;5012517;28;20481;-76
2021/12/31 07:21:05;;;;;;;12.93;7.13;;;11.30;90.00;;;;;;5005098;28;20492;-76
2021/12/31 07:23:31;;;;;;;14.40;7.20;;;11.20;89.90;;;;;;5009180;28;20406;-75
2021/12/31 07:25:57;;;;;;;13.80;7.28;;;11.20;89.90;;;;;;5007443;28;20466;-76
2021/12/31 07:28:23;;;;;;;12.57;7.82;;;11.30;89.90;;;;;;5010077;28;20043;-76
2021/12/31 07:30:49;;;;;;;12.50;7.38;;;11.30;89.80;;;;;;5007626;28;20257;-74
2021/12/31 07:33:22;;;;;;;12.25;7.20;;;11.30;89.70;;;;;;5011663;28;20339;-76
2021/12/31 07:35:49;;;;;;;12.25;7.90;;;11.30;89.70;;;;;;5020881;28;20087;-76
2021/12/31 07:38:31;;;;;;;12.15;7.80;;;11.30;89.70;;;;;;5010432;28;20046;-76
2021/12/31 07:40:57;;;;;;;12.32;7.60;;;11.30;89.60;;;;;;5001433;28;20034;-75
2021/12/31 07:43:23;;;;;;;12.55;7.32;;;11.40;89.50;;;;;;5006417;28;20030;-75
2021/12/31 07:45:49;;;;;;;13.10;7.80;;;11.40;89.50;;;;;;5022222;28;20072;-75
2021/12/31 07:48:15;;;;;;;14.52;7.72;;;11.40;89.50;;;;;;5014355;28;20077;-75
2021/12/31 07:50:41;;;;;;;13.27;8.10;;;11.40;89.30;;;;;;5016623;28;20041;-77
2021/12/31 07:53:07;;;;;;;13.05;8.00;;;11.40;89.40;;;;;;5010064;28;20033;-77
2021/12/31 07:55:34;;;;;;;13.05;7.70;;;11.40;89.30;;;;;;5016248;28;20033;-76
2021/12/31 07:58:01;;;;;;;11.32;7.38;;;11.40;89.30;;;;;;5010587;28;20085;-76
2021/12/31 08:00:27;;;;;;;13.20;7.85;;;11.40;89.20;;;;;;5012081;28;20030;-75
2021/12/31 08:02:57;;;;;;;12.30;7.53;;;11.40;89.10;;;;;;5012532;28;20076;-76
2021/12/31 08:05:24;;;;;;;13.75;7.93;;;11.40;89.10;;;;;;5020662;28;20037;-75
2021/12/31 08:07:49;;;;;;;13.93;8.35;;;11.40;89.20;;;;;;5018714;28;20056;-75
2021/12/31 08:10:15;;;;;;;11.40;7.72;;;11.40;89.10;;;;;;5012860;28;20030;-75
2021/12/31 08:12:41;;;;;;;10.43;7.57;;;11.40;89.10;;;;;;5007009;28;20129;-77
2021/12/31 08:15:07;;;;;;;11.95;7.88;;;11.40;89.20;;;;;;5013501;28;20041;-76
2021/12/31 08:17:33;;;;;;;13.05;7.93;;;11.40;89.00;;;;;;5013598;28;20113;-76
2021/12/31 08:19:58;;;;;;;14.73;8.43;;;11.50;88.90;;;;;;5011339;28;20159;-80
2021/12/31 08:22:24;;;;;;;13.95;7.80;;;11.40;89.00;;;;;;5008058;28;20061;-75
2021/12/31 08:24:50;;;;;;;14.93;8.65;;;11.40;89.10;;;;;;5006492;28;20030;-76
2021/12/31 08:27:16;;;;;;;12.55;8.93;;;11.40;89.00;;;;;;5008560;28;20062;-76
2021/12/31 08:29:41;;;;;;;13.23;7.70;;;11.40;89.10;;;;;;5009780;28;20449;-76
2021/12/31 08:32:07;;;;;;;12.65;7.88;;;11.40;89.10;;;;;;5008908;28;20038;-76
2021/12/31 08:34:33;;;;;;;12.88;7.28;;;11.40;88.90;;;;;;5007931;28;20033;-80
2021/12/31 08:36:59;;;;;;;12.15;8.07;;;11.40;88.90;;;;;;4998665;28;20037;-75
2021/12/31 08:39:24;;;;;;;13.07;8.02;;;11.50;88.80;;;;;;4996911;28;20041;-76
2021/12/31 08:41:50;;;;;;;15.20;7.57;;;11.50;88.70;;;;;;5004708;28;20030;-80
2021/12/31 08:44:16;;;;;;;11.88;7.47;;;11.50;88.70;;;;;;5006301;28;20041;-77
2021/12/31 08:46:42;;;;;;;12.27;7.07;;;11.50;88.60;;;;;;4997076;28;20119;-81
2021/12/31 08:49:08;;;;;;;10.88;7.13;;;11.50;88.60;;;;;;5008049;28;20052;-78
2021/12/31 08:51:34;;;;;;;11.70;6.97;;;11.50;88.60;;;;;;5007291;28;20054;-75
2021/12/31 08:54:00;;;;;;;12.88;7.90;;;11.50;88.50;;;;;;5004648;28;20034;-78
2021/12/31 08:56:25;;;;;;;11.73;6.93;;;11.50;88.60;;;;;;5003091;28;20045;-75
2021/12/31 08:58:51;;;;;;;11.50;7.28;;;11.50;88.60;;;;;;5008819;28;20042;-76
2021/12/31 09:01:17;;;;;;;9.77;6.22;;;11.50;88.60;;;;;;5003271;28;20072;-76
2021/12/31 09:03:43;;;;;;;9.93;6.47;;;11.50;88.50;;;;;;5004282;28;20088;-77
2021/12/31 09:06:08;;;;;;;12.82;7.00;;;11.50;88.60;;;;;;5010386;28;20117;-80
2021/12/31 09:08:34;;;;;;;11.20;6.22;;;11.50;88.60;;;;;;5002808;28;20053;-77
2021/12/31 09:11:00;;;;;;;10.65;6.10;;;11.50;88.50;;;;;;5002038;28;20042;-80
2021/12/31 09:13:27;;;;;;;11.55;6.40;;;11.50;88.40;;;;;;5007627;28;20174;-76
2021/12/31 09:15:53;;;;;;;11.80;6.25;;;11.50;88.40;;;;;;5015071;28;20088;-76
2021/12/31 09:18:19;;;;;;;12.73;6.35;;;11.60;88.30;;;;;;5003550;28;20038;-79
2021/12/31 09:20:45;;;;;;;11.13;6.20;;;11.60;88.50;;;;;;4996740;28;20725;-75
2021/12/31 09:23:11;;;;;;;10.32;6.53;;;11.60;88.30;;;;;;5003022;28;20034;-77
2021/12/31 09:25:37;;;;;;;12.27;6.40;;;11.60;88.40;;;;;;5008739;28;20036;-79
2021/12/31 09:28:02;;;;;;;11.40;6.65;;;11.60;88.40;;;;;;4999178;28;20038;-76
2021/12/31 09:30:28;;;;;;;12.48;6.75;;;11.60;88.20;;;;;;5001780;28;20037;-79
2021/12/31 09:32:54;;;;;;;9.95;6.00;;;11.60;88.20;;;;;;5007769;28;20026;-76
2021/12/31 09:35:19;;;;;;;10.98;6.15;;;11.60;88.30;;;;;;5001090;28;20033;-77
2021/12/31 09:37:45;;;;;;;12.40;6.47;;;11.70;88.30;;;;;;5001442;28;20038;-73
2021/12/31 09:40:15;;;;;;;11.52;6.30;;;11.70;88.30;;;;;;5000486;28;20030;-72
2021/12/31 09:42:46;;;;;;;10.00;5.63;;;11.80;88.10;;;;;;4992254;28;20046;-74
2021/12/31 09:45:15;;;;;;;11.85;6.07;;;11.80;88.00;;;;;;4996918;28;20046;-74
2021/12/31 09:47:42;;;;;;;11.05;5.85;;;11.80;87.90;;;;;;4998619;28;20136;-73
2021/12/31 09:50:08;;;;;;;9.65;6.05;;;11.90;87.70;;;;;;4998234;28;20057;-74
2021/12/31 09:52:35;;;;;;;9.00;5.57;;;11.90;87.70;;;;;;4997438;28;20547;-73
2021/12/31 09:55:01;;;;;;;11.20;6.45;;;12.00;87.50;;;;;;4995684;28;20566;-74
2021/12/31 09:57:27;;;;;;;8.95;5.38;;;12.10;87.30;;;;;;4996402;28;20465;-73
2021/12/31 09:59:54;;;;;;;12.80;6.03;;;12.10;87.20;;;;;;4998324;28;20025;-74
2021/12/31 10:02:33;;;;;;;11.70;5.32;;;12.10;87.30;;;;;;4996160;28;20037;-75
2021/12/31 10:05:00;;;;;;;11.80;6.10;;;12.10;87.20;;;;;;4991852;28;20065;-74
2021/12/31 10:07:29;;;;;;;10.30;5.70;;;12.10;87.30;;;;;;4994674;28;20034;-74
2021/12/31 10:10:12;;;;;;;10.00;5.95;;;12.00;87.50;;;;;;4996099;28;20030;-73
2021/12/31 10:12:52;;;;;;;13.27;6.18;;;12.10;87.40;;;;;;4996971;28;20030;-73
2021/12/31 10:15:24;;;;;;;10.60;5.80;;;12.10;87.50;;;;;;4992109;28;20056;-75
2021/12/31 10:17:50;;;;;;;13.10;5.80;;;12.10;87.40;;;;;;5000131;28;20113;-74
2021/12/31 10:20:16;;;;;;;9.25;5.93;;;12.10;87.20;;;;;;4998072;28;20116;-74
2021/12/31 10:22:43;;;;;;;10.27;6.05;;;12.20;87.20;;;;;;4997988;28;20036;-75
2021/12/31 10:25:24;;;;;;;11.38;6.82;;;12.20;87.30;;;;;;4995496;28;20041;-73
2021/12/31 10:27:52;;;;;;;11.07;6.22;;;12.30;87.20;;;;;;4995717;28;20117;-72
2021/12/31 10:30:23;;;;;;;9.60;5.50;;;12.40;87.00;;;;;;4996177;28;20485;-73
2021/12/31 10:32:49;;;;;;;10.10;5.65;;;12.50;86.80;;;;;;4997424;28;20500;-76
2021/12/31 10:35:20;;;;;;;10.48;6.20;;;12.50;86.80;;;;;;4993540;28;20136;-73
2021/12/31 10:38:01;;;;;;;10.65;5.65;;;12.60;86.70;;;;;;4994854;28;20045;-72
2021/12/31 10:40:32;;;;;;;11.25;5.65;;;12.60;86.50;;;;;;4995184;28;20026;-76
2021/12/31 10:43:21;;;;;;;9.68;5.75;;;12.60;86.50;;;;;;4995911;28;20507;-73
2021/12/31 10:45:56;;;;;;;11.45;5.55;;;12.60;86.20;;;;;;4994290;28;20107;-74
2021/12/31 10:48:21;;;;;;;9.27;5.47;;;12.70;86.20;;;;;;4993471;28;20060;-73
2021/12/31 10:50:51;;;;;;;9.88;5.95;;;12.70;85.90;;;;;;4994367;28;20083;-73
2021/12/31 10:53:33;;;;;;;11.18;5.93;;;12.70;86.10;;;;;;4996825;28;20033;-74
2021/12/31 10:56:10;;;;;;;12.07;6.03;;;12.70;86.20;;;;;;4994795;28;20034;-75
2021/12/31 10:58:42;;;;;;;11.77;6.00;;;12.70;86.00;;;;;;4994709;28;20038;-76
2021/12/31 11:01:12;;;;;;;9.77;5.53;;;12.60;86.20;;;;;;4996040;28;20132;-73
2021/12/31 11:03:39;;;;;;;12.63;7.00;;;12.60;86.40;;;;;;4995229;28;20018;-74
2021/12/31 11:06:07;;;;;;;9.07;5.68;;;12.60;86.60;;;;;;4994226;28;20040;-74
2021/12/31 11:08:33;;;;;;;10.15;5.65;;;12.60;86.60;;;;;;4994771;28;20104;-74
2021/12/31 11:11:01;;;;;;;9.75;6.22;;;12.60;86.70;;;;;;4997102;28;20500;-73
2021/12/31 11:13:28;;;;;;;9.85;5.93;;;12.60;86.60;;;;;;4999946;28;20062;-73
2021/12/31 11:15:55;;;;;;;12.43;6.32;;;12.60;86.50;;;;;;4994537;28;20450;-75
2021/12/31 11:18:25;;;;;;;9.40;5.47;;;12.70;86.50;;;;;;5001288;28;20026;-73
2021/12/31 11:20:53;;;;;;;11.38;5.97;;;12.80;86.60;;;;;;5002583;28;20121;-73
2021/12/31 11:23:30;;;;;;;10.13;5.63;;;13.10;86.10;;;;;;5006629;28;20125;-72
2021/12/31 11:25:57;;;;;;;9.18;5.20;;;13.30;85.30;;;;;;5005376;28;20034;-73
2021/12/31 11:28:24;;;;;;;9.60;5.22;;;13.50;84.70;;;;;;5002055;28;20868;-73
2021/12/31 11:30:51;;;;;;;8.70;5.57;;;13.60;84.10;;;;;;5003126;28;20086;-73
2021/12/31 11:33:22;;;;;;;8.18;5.07;;;13.70;83.80;;;;;;5000678;28;20034;-73
2021/12/31 11:35:58;;;;;;;8.63;4.63;;;13.90;83.10;;;;;;5001005;28;20053;-73
2021/12/31 11:38:23;;;;;;;9.15;4.72;;;14.00;82.60;;;;;;5002834;28;20049;-73
2021/12/31 11:41:07;;;;;;;12.35;4.82;;;14.00;82.20;;;;;;5004381;28;20493;-74
2021/12/31 11:43:34;;;;;;;8.33;4.60;;;14.00;82.20;;;;;;5002294;28;20122;-73
2021/12/31 11:46:28;;;;;;;8.77;4.93;;;14.10;82.20;;;;;;5005862;28;20103;-74
2021/12/31 11:48:55;;;;;;;8.57;4.55;;;14.10;81.80;;;;;;5002954;28;20056;-76
2021/12/31 11:51:28;;;;;;;8.10;4.18;;;14.10;81.70;;;;;;5001534;28;20050;-74
2021/12/31 11:54:00;;;;;;;8.93;4.60;;;14.30;81.50;;;;;;5001545;28;20050;-74
2021/12/31 11:56:53;;;;;;;10.35;4.18;;;14.40;80.70;;;;;;5005221;28;20038;-73
2021/12/31 11:59:21;;;;;;;11.00;3.92;;;14.30;80.50;;;;;;4999766;28;20037;-72
2021/12/31 12:01:51;;;;;;;8.57;3.53;;;14.30;80.70;;;;;;5005908;28;20493;-73
2021/12/31 12:04:28;;;;;;;8.43;4.10;;;14.50;80.30;;;;;;5002255;28;20673;-72
2021/12/31 12:06:57;;;;;;;10.43;4.28;;;14.60;79.60;;;;;;5004144;28;20357;-73
2021/12/31 12:09:43;;;;;;;8.07;3.58;;;14.60;79.40;;;;;;5002156;28;20065;-72
2021/12/31 12:12:17;;;;;;;8.90;3.85;;;14.50;79.70;;;;;;5008527;28;20029;-73
2021/12/31 12:14:46;;;;;;;9.23;4.25;;;14.50;79.90;;;;;;5011700;28;20130;-73
2021/12/31 12:17:17;;;;;;;8.98;4.30;;;14.50;79.50;;;;;;5004188;28;20488;-73
2021/12/31 12:19:45;;;;;;;10.27;4.05;;;14.50;80.10;;;;;;5005221;28;20336;-74
2021/12/31 12:22:34;;;;;;;9.88;3.78;;;14.60;79.70;;;;;;5002567;28;20046;-72
2021/12/31 12:25:10;;;;;;;8.77;3.83;;;14.60;79.20;;;;;;5004965;28;20447;-74
2021/12/31 12:27:37;;;;;;;10.45;3.90;;;14.60;79.40;;;;;;5002253;28;20030;-73
2021/12/31 12:30:08;;;;;;;9.00;3.83;;;14.60;79.80;;;;;;5006362;28;20046;-73
2021/12/31 12:32:38;;;;;;;8.45;4.10;;;14.50;80.00;;;;;;5007323;28;20143;-72
2021/12/31 12:35:14;;;;;;;10.52;4.60;;;14.40;80.50;;;;;;5009978;28;20092;-72
2021/12/31 12:37:40;;;;;;;9.88;4.10;;;14.40;80.80;;;;;;5009233;28;20042;-71
2021/12/31 12:40:07;;;;;;;9.30;4.07;;;14.30;80.80;;;;;;5009838;28;20342;-72
2021/12/31 12:42:33;;;;;;;9.73;4.07;;;14.20;81.10;;;;;;5004778;28;20673;-71
2021/12/31 12:45:07;;;;;;;11.75;4.43;;;14.10;81.20;;;;;;5009291;28;20042;-74